Time;durP1;ratioP1;P1;durP2;ratioP2;P2;SDS_P1;SDS_P2;PMS_P1;PMS_P2;Temp;Humidity;BMP_temperature;BMP_pressure;BME280_temperature;BME280_humidity;BME280_pressure;Samples;Min_cycle;Max_cycle;Signal;HPM_P1;HPM_P2
2023/04/25 00:01:59;;;;;;;21.70;4.68;;;;;;;7.65;100.00;100935.06;5095451;27;20089;-72
2023/04/25 00:04:27;;;;;;;19.75;5.13;;;;;;;7.68;100.00;100926.94;5098106;27;20038;-72
2023/04/25 00:06:53;;;;;;;17.13;5.55;;;;;;;7.58;100.00;100933.63;5083850;27;20062;-72
2023/04/25 00:09:19;;;;;;;21.52;5.30;;;;;;;7.68;100.00;100930.47;5063003;27;20036;-72
2023/04/25 00:11:45;;;;;;;15.82;5.10;;;;;;;7.73;100.00;100922.25;5097827;27;20930;-72
2023/04/25 00:14:10;;;;;;;16.58;5.97;;;;;;;7.69;100.00;100915.41;5092852;27;20043;-72
2023/04/25 00:16:36;;;;;;;18.98;5.95;;;;;;;7.59;100.00;100914.16;5100940;27;20047;-71
2023/04/25 00:19:02;;;;;;;17.05;5.72;;;;;;;7.50;100.00;100918.97;5102550;27;20036;-71
2023/04/25 00:21:28;;;;;;;15.27;4.97;;;;;;;7.48;100.00;100923.50;5096844;27;20043;-71
2023/04/25 00:23:54;;;;;;;21.05;5.43;;;;;;;7.47;100.00;100931.50;5076355;27;20600;-71
2023/04/25 00:26:20;;;;;;;20.10;5.72;;;;;;;7.46;100.00;100938.63;5094675;27;20036;-71
2023/04/25 00:28:47;;;;;;;18.05;5.47;;;;;;;7.52;100.00;100926.84;5099424;27;20032;-71
2023/04/25 00:31:12;;;;;;;17.90;5.45;;;;;;;7.49;100.00;100940.28;5080895;27;20070;-71
2023/04/25 00:33:38;;;;;;;18.13;5.60;;;;;;;7.38;100.00;100940.81;5102297;27;20025;-71
2023/04/25 00:36:04;;;;;;;20.83;5.60;;;;;;;7.29;100.00;100943.91;5096610;27;20036;-72
2023/04/25 00:38:29;;;;;;;25.15;7.10;;;;;;;7.29;100.00;100946.56;5076225;27;20035;-71
2023/04/25 00:40:56;;;;;;;16.92;5.65;;;;;;;7.13;100.00;100941.13;5096079;27;20040;-72
2023/04/25 00:43:22;;;;;;;18.48;5.05;;;;;;;7.01;100.00;100945.19;5075797;28;20072;-71
2023/04/25 00:45:51;;;;;;;18.40;6.10;;;;;;;6.97;100.00;100956.88;5075623;28;20036;-71
2023/04/25 00:48:17;;;;;;;30.95;7.38;;;;;;;6.87;100.00;100952.91;5095841;27;20114;-71
2023/04/25 00:50:52;;;;;;;22.83;5.60;;;;;;;6.94;100.00;100954.38;5095331;27;20055;-72
2023/04/25 00:53:18;;;;;;;23.23;6.18;;;;;;;6.91;100.00;100957.16;5075358;27;20040;-72
2023/04/25 00:55:44;;;;;;;22.55;6.00;;;;;;;6.83;100.00;100961.09;5074517;27;20043;-72
2023/04/25 00:58:09;;;;;;;23.13;6.22;;;;;;;6.79;100.00;100959.53;5079186;27;20492;-71
2023/04/25 01:00:36;;;;;;;22.13;6.25;;;;;;;6.78;100.00;100963.09;5081413;27;20105;-71
2023/04/25 01:03:02;;;;;;;28.00;6.18;;;;;;;6.83;100.00;100953.13;5095375;27;20039;-71
2023/04/25 01:05:28;;;;;;;18.77;6.07;;;;;;;6.69;100.00;100959.09;5079762;28;20107;-72
2023/04/25 01:07:53;;;;;;;24.90;6.65;;;;;;;6.69;100.00;100964.38;5075747;27;20113;-72
2023/04/25 01:10:19;;;;;;;25.92;5.78;;;;;;;6.69;100.00;100964.38;5084207;28;20044;-72
2023/04/25 01:12:45;;;;;;;19.67;6.40;;;;;;;6.81;100.00;100963.81;5082810;27;20036;-72
2023/04/25 01:15:11;;;;;;;29.75;8.43;;;;;;;6.83;100.00;100966.38;5074104;27;20113;-71
2023/04/25 01:17:36;;;;;;;21.63;5.72;;;;;;;7.00;100.00;100963.84;5074926;27;20024;-71
2023/04/25 01:20:07;;;;;;;34.30;7.70;;;;;;;7.03;100.00;100963.69;5095024;27;20040;-72
2023/04/25 01:22:33;;;;;;;31.23;7.47;;;;;;;7.09;100.00;100963.41;5078681;27;20044;-71
2023/04/25 01:24:59;;;;;;;25.95;7.10;;;;;;;7.16;100.00;100963.97;5098974;27;20028;-72
2023/04/25 01:27:25;;;;;;;24.15;6.57;;;;;;;7.13;100.00;100969.41;5096241;27;20770;-71
2023/04/25 01:29:51;;;;;;;29.90;6.53;;;;;;;7.17;100.00;100970.97;5078561;27;20130;-72
2023/04/25 01:32:18;;;;;;;40.40;7.28;;;;;;;7.22;100.00;100966.31;5073451;27;20460;-72
2023/04/25 01:34:43;;;;;;;24.45;7.03;;;;;;;7.18;100.00;100970.94;5096705;27;20020;-72
2023/04/25 01:37:09;;;;;;;32.45;7.43;;;;;;;7.18;100.00;100972.72;5074457;28;20838;-71
2023/04/25 01:39:34;;;;;;;23.88;7.40;;;;;;;7.21;100.00;100972.56;5093344;27;20040;-72
2023/04/25 01:42:01;;;;;;;25.05;7.05;;;;;;;7.19;100.00;100977.09;5093986;27;20532;-71
2023/04/25 01:44:27;;;;;;;25.58;6.43;;;;;;;7.25;100.00;100974.16;5072566;27;20135;-71
2023/04/25 01:46:53;;;;;;;19.08;6.82;;;;;;;7.13;100.00;100967.63;5073040;27;20138;-71
2023/04/25 01:49:19;;;;;;;22.15;6.80;;;;;;;7.08;100.00;100976.72;5077299;27;20048;-72
2023/04/25 01:51:44;;;;;;;23.23;6.80;;;;;;;7.09;100.00;100986.41;5083616;27;20051;-72
2023/04/25 01:54:11;;;;;;;20.80;6.43;;;;;;;7.22;100.00;100985.75;5078826;28;20028;-71
2023/04/25 01:56:37;;;;;;;43.70;7.60;;;;;;;7.16;100.00;100980.72;5075342;28;20118;-71
2023/04/25 01:59:05;;;;;;;22.60;6.60;;;;;;;7.09;100.00;100989.91;5074942;27;20040;-71
2023/04/25 02:01:50;;;;;;;25.88;7.32;;;;;;;7.19;100.00;100987.69;5086713;27;20059;-71
2023/04/25 02:04:22;;;;;;;27.73;6.80;;;;;;;7.07;100.00;100994.41;5095282;27;20037;-71
2023/04/25 02:06:48;;;;;;;30.48;8.32;;;;;;;7.07;100.00;100991.75;5084872;27;20031;-71
2023/04/25 02:09:14;;;;;;;25.48;7.40;;;;;;;7.06;100.00;100992.69;5086069;27;20028;-71
2023/04/25 02:11:45;;;;;;;37.38;8.07;;;;;;;7.05;100.00;100996.28;5075870;27;20033;-71
2023/04/25 02:14:29;;;;;;;32.58;7.28;;;;;;;7.12;100.00;101004.81;5095187;27;20040;-71
2023/04/25 02:17:15;;;;;;;33.53;8.15;;;;;;;7.07;100.00;100996.22;5106659;27;20097;-71
2023/04/25 02:19:41;;;;;;;33.92;8.25;;;;;;;7.15;100.00;100999.38;5095188;27;20036;-71
2023/04/25 02:22:07;;;;;;;24.83;6.57;;;;;;;7.03;100.00;101003.47;5095099;27;20858;-71
2023/04/25 02:24:33;;;;;;;24.60;6.55;;;;;;;7.01;100.00;100997.34;5076603;28;20032;-71
2023/04/25 02:26:59;;;;;;;31.52;7.82;;;;;;;7.00;100.00;101003.59;5094753;27;20038;-71
2023/04/25 02:29:24;;;;;;;37.35;7.38;;;;;;;7.00;100.00;100996.50;5094124;27;20524;-71
2023/04/25 02:31:50;;;;;;;29.58;7.82;;;;;;;6.93;100.00;101013.63;5093364;27;20043;-71
2023/04/25 02:34:16;;;;;;;25.05;6.60;;;;;;;7.06;100.00;101000.66;5094611;27;20118;-71
2023/04/25 02:36:41;;;;;;;23.10;6.53;;;;;;;7.01;100.00;101007.97;5097069;27;20035;-70
2023/04/25 02:39:07;;;;;;;33.92;7.22;;;;;;;7.01;100.00;101003.53;5098317;27;20036;-70
2023/04/25 02:41:33;;;;;;;24.00;6.28;;;;;;;6.99;100.00;101013.34;5099534;27;20551;-70
2023/04/25 02:43:59;;;;;;;24.08;7.85;;;;;;;6.96;100.00;101010.81;5093779;27;20040;-70
2023/04/25 02:46:24;;;;;;;29.98;8.05;;;;;;;6.79;100.00;101010.75;5093367;27;20036;-70
2023/04/25 02:48:50;;;;;;;35.67;6.45;;;;;;;6.84;100.00;101006.09;5064548;27;20089;-70
2023/04/25 02:51:16;;;;;;;21.98;6.15;;;;;;;6.91;100.00;101004.88;5095548;27;20548;-71
2023/04/25 02:53:42;;;;;;;28.73;7.72;;;;;;;6.86;100.00;101008.66;5039858;27;20028;-70
2023/04/25 02:56:08;;;;;;;18.88;5.75;;;;;;;6.85;100.00;101009.59;5090263;27;20064;-70
2023/04/25 02:58:33;;;;;;;31.67;8.98;;;;;;;6.73;100.00;101014.53;5104187;27;20044;-70
2023/04/25 03:00:59;;;;;;;27.38;7.28;;;;;;;6.70;100.00;101021.75;5102847;27;20742;-70
2023/04/25 03:03:24;;;;;;;21.63;6.82;;;;;;;6.62;100.00;101010.63;5077147;27;20024;-70
2023/04/25 03:05:51;;;;;;;27.15;6.78;;;;;;;6.56;100.00;101022.34;5078901;28;20039;-71
2023/04/25 03:08:22;;;;;;;29.40;6.95;;;;;;;6.57;100.00;101013.47;5078312;27;20038;-70
2023/04/25 03:10:49;;;;;;;21.77;7.50;;;;;;;6.65;100.00;101015.78;5078322;27;20046;-71
2023/04/25 03:13:15;;;;;;;23.15;7.22;;;;;;;6.58;100.00;101012.56;5075756;27;20028;-70
2023/04/25 03:15:42;;;;;;;33.30;7.22;;;;;;;6.52;100.00;101011.94;5078002;27;20137;-70
2023/04/25 03:18:08;;;;;;;28.48;7.72;;;;;;;6.52;100.00;101019.91;5096235;27;20043;-70
2023/04/25 03:20:33;;;;;;;23.48;7.68;;;;;;;6.66;100.00;101023.66;5061023;27;20028;-70
2023/04/25 03:22:59;;;;;;;32.85;7.32;;;;;;;6.57;100.00;101023.19;5070852;27;20036;-70
2023/04/25 03:25:25;;;;;;;28.27;6.70;;;;;;;6.56;100.00;101027.66;5104678;27;20031;-71
2023/04/25 03:27:50;;;;;;;26.50;7.47;;;;;;;6.52;100.00;101022.53;5091287;27;20040;-71
2023/04/25 03:30:16;;;;;;;31.77;7.82;;;;;;;6.55;100.00;101017.97;5076187;28;21036;-70
2023/04/25 03:32:43;;;;;;;29.42;8.65;;;;;;;6.63;100.00;101028.25;5081124;27;20031;-70
2023/04/25 03:35:08;;;;;;;27.27;7.13;;;;;;;6.61;100.00;101025.66;5107704;27;20028;-70
2023/04/25 03:37:34;;;;;;;31.83;7.50;;;;;;;6.53;100.00;101033.09;5077614;28;20043;-70
2023/04/25 03:40:00;;;;;;;25.67;6.55;;;;;;;6.54;100.00;101033.97;5077352;27;20036;-70
2023/04/25 03:42:38;;;;;;;33.80;7.57;;;;;;;6.66;100.00;101022.81;5074977;27;20115;-71
2023/04/25 03:45:05;;;;;;;30.90;7.65;;;;;;;6.46;100.00;101029.84;5106019;27;20895;-71
2023/04/25 03:47:31;;;;;;;19.48;5.95;;;;;;;6.43;100.00;101027.34;5083258;28;20850;-70
2023/04/25 03:49:57;;;;;;;26.13;6.57;;;;;;;6.47;100.00;101041.28;5077907;27;20074;-70
2023/04/25 03:52:23;;;;;;;24.95;7.07;;;;;;;6.43;100.00;101035.28;5079380;27;20138;-71
2023/04/25 03:54:49;;;;;;;29.05;6.75;;;;;;;6.35;100.00;101041.81;5085410;28;20040;-71
2023/04/25 03:57:17;;;;;;;29.15;7.50;;;;;;;6.34;100.00;101043.63;5081537;28;20036;-70
2023/04/25 03:59:44;;;;;;;28.85;8.32;;;;;;;6.34;100.00;101037.47;5076484;28;20024;-71
2023/04/25 04:02:11;;;;;;;32.00;7.75;;;;;;;6.28;100.00;101035.09;5079304;28;20595;-70
2023/04/25 04:04:38;;;;;;;20.13;6.60;;;;;;;6.16;100.00;101045.25;5095983;27;20028;-70
2023/04/25 04:07:03;;;;;;;36.72;6.72;;;;;;;6.05;100.00;101042.19;5096512;27;20040;-72
2023/04/25 04:09:33;;;;;;;29.65;7.07;;;;;;;6.01;100.00;101051.16;5081844;27;20031;-70
2023/04/25 04:12:02;;;;;;;28.25;7.50;;;;;;;5.97;100.00;101060.16;5091732;27;20032;-70
2023/04/25 04:14:30;;;;;;;22.50;7.15;;;;;;;5.96;100.00;101064.59;5095866;27;20175;-70
2023/04/25 04:16:55;;;;;;;26.55;7.32;;;;;;;6.00;100.00;101062.69;5076394;28;20051;-71
2023/04/25 04:19:21;;;;;;;21.60;6.68;;;;;;;6.13;100.00;101063.91;5060936;27;20043;-70
2023/04/25 04:21:55;;;;;;;24.00;7.22;;;;;;;6.03;100.00;101057.28;5084162;28;20036;-70
2023/04/25 04:24:21;;;;;;;25.23;6.43;;;;;;;5.88;100.00;101056.09;5083483;28;20036;-72
2023/04/25 04:27:00;;;;;;;27.63;7.22;;;;;;;5.90;100.00;101064.81;5091269;27;20035;-72
2023/04/25 04:29:33;;;;;;;29.85;7.90;;;;;;;5.88;100.00;101058.72;5080188;28;20047;-72
2023/04/25 04:32:13;;;;;;;30.85;7.70;;;;;;;5.84;100.00;101062.41;5084347;27;20036;-70
2023/04/25 04:34:39;;;;;;;30.38;7.38;;;;;;;5.89;100.00;101067.53;5092527;27;20027;-72
2023/04/25 04:37:06;;;;;;;21.58;7.10;;;;;;;5.95;100.00;101075.25;5079730;27;20068;-72
2023/04/25 04:39:33;;;;;;;32.70;7.97;;;;;;;6.11;100.00;101075.47;5078466;27;20095;-72
2023/04/25 04:42:08;;;;;;;27.38;7.10;;;;;;;6.15;100.00;101087.69;5080381;28;20028;-72
2023/04/25 04:44:54;;;;;;;18.33;7.50;;;;;;;6.26;100.00;101087.22;5095293;27;20052;-72
2023/04/25 04:47:30;;;;;;;24.42;7.65;;;;;;;6.26;100.00;101095.16;5075776;28;20552;-72
2023/04/25 04:50:10;;;;;;;22.77;7.95;;;;;;;6.27;100.00;101110.13;5094392;27;20230;-72
2023/04/25 04:52:50;;;;;;;16.83;6.45;;;;;;;6.17;100.00;101114.94;5063273;28;20028;-72
2023/04/25 04:55:40;;;;;;;22.25;7.57;;;;;;;5.42;100.00;101124.03;5082535;27;20028;-72
2023/04/25 04:58:19;;;;;;;23.58;7.07;;;;;;;5.69;100.00;101123.88;5077189;28;20085;-72
2023/04/25 05:00:52;;;;;;;22.15;7.47;;;;;;;6.03;100.00;101136.69;5061168;27;20036;-71
2023/04/25 05:03:41;;;;;;;26.75;7.38;;;;;;;6.04;100.00;101132.25;5106243;27;20016;-71
2023/04/25 05:06:33;;;;;;;27.77;6.97;;;;;;;5.66;100.00;101148.66;5076003;27;20055;-71
2023/04/25 05:09:19;;;;;;;19.35;5.28;;;;;;;5.45;100.00;101137.09;5064593;27;20060;-71
2023/04/25 05:12:13;;;;;;;32.10;7.38;;;;;;;5.58;100.00;101155.19;5007322;28;20169;-71
2023/04/25 05:15:00;;;;;;;19.83;6.30;;;;;;;5.70;100.00;101152.06;5011796;28;20033;-71
2023/04/25 05:17:38;;;;;;;24.25;7.28;;;;;;;5.84;100.00;101141.81;5016304;28;20038;-71
2023/04/25 05:20:09;;;;;;;;;;;;;;;6.00;100.00;101143.88;5012570;28;20049;-71
2023/04/25 05:23:06;;;;;;;20.48;5.30;;;;;;;5.97;100.00;101140.44;5002548;28;19921;-71
2023/04/25 05:25:59;;;;;;;27.15;6.68;;;;;;;5.97;100.00;101151.03;5003111;28;21168;-72
2023/04/25 05:28:36;;;;;;;27.63;6.75;;;;;;;5.97;100.00;101152.78;5013643;28;20046;-71
2023/04/25 05:31:36;;;;;;;17.65;5.97;;;;;;;6.15;100.00;101157.38;4943256;28;21063;-71
2023/04/25 05:34:08;;;;;;;14.95;6.25;;;;;;;6.09;100.00;101159.41;4936435;28;20235;-72
2023/04/25 05:36:48;;;;;;;24.55;6.10;;;;;;;6.23;100.00;101163.22;4948482;28;20051;-71
2023/04/25 05:39:16;;;;;;;20.25;6.43;;;;;;;6.27;100.00;101165.75;4948934;28;20039;-72
2023/04/25 05:42:01;;;;;;;17.95;5.70;;;;;;;6.24;100.00;101172.03;4950117;28;20149;-71
2023/04/25 05:44:45;;;;;;;20.17;5.75;;;;;;;6.41;100.00;101177.50;4947077;28;20228;-72
2023/04/25 05:47:35;;;;;;;26.20;6.70;;;;;;;6.45;100.00;101179.09;4945058;28;20077;-72
2023/04/25 05:50:09;;;;;;;24.27;6.70;;;;;;;6.45;100.00;101189.69;4988201;28;20056;-72
2023/04/25 05:52:55;;;;;;;15.55;5.68;;;;;;;6.51;100.00;101188.59;5001602;28;20043;-72
2023/04/25 05:55:28;;;;;;;22.02;6.03;;;;;;;6.16;100.00;101195.28;4990496;28;20046;-72
2023/04/25 05:57:54;;;;;;;15.52;5.38;;;;;;;6.48;100.00;101199.31;4990980;28;20042;-72
2023/04/25 06:00:21;;;;;;;16.15;4.22;;;;;;;6.23;100.00;101205.59;4987973;28;20053;-72
2023/04/25 06:02:48;;;;;;;17.00;5.72;;;;;;;6.23;100.00;101199.44;4989751;28;20041;-72
2023/04/25 06:05:14;;;;;;;18.02;5.18;;;;;;;6.37;100.00;101209.47;5006184;28;20042;-72
2023/04/25 06:07:40;;;;;;;12.52;4.88;;;;;;;6.31;100.00;101207.94;5051556;28;20232;-72
2023/04/25 06:10:07;;;;;;;14.10;4.00;;;;;;;6.21;100.00;101209.22;5080089;27;20040;-72
2023/04/25 06:12:33;;;;;;;16.95;4.15;;;;;;;5.92;100.00;101207.69;5074205;27;20552;-72
2023/04/25 06:15:00;;;;;;;12.13;3.30;;;;;;;6.28;100.00;101200.13;5064447;28;21084;-72
2023/04/25 06:17:25;;;;;;;13.93;3.50;;;;;;;6.09;100.00;101209.72;5072507;28;20036;-72
2023/04/25 06:19:51;;;;;;;6.07;2.63;;;;;;;6.38;100.00;101201.47;5056666;27;20032;-72
2023/04/25 06:22:17;;;;;;;8.80;2.80;;;;;;;6.67;100.00;101194.09;5062502;27;20151;-72
2023/04/25 06:24:43;;;;;;;12.18;3.10;;;;;;;6.67;100.00;101202.91;5073920;27;20028;-72
2023/04/25 06:27:09;;;;;;;11.85;3.13;;;;;;;6.98;100.00;101194.56;5062657;27;20965;-71
2023/04/25 06:29:34;;;;;;;12.50;2.78;;;;;;;7.10;100.00;101194.94;5095971;27;20036;-72
2023/04/25 06:32:00;;;;;;;8.60;2.40;;;;;;;7.12;100.00;101193.09;5077110;28;20044;-71
2023/04/25 06:34:25;;;;;;;10.35;2.78;;;;;;;7.15;100.00;101195.63;5084495;27;20738;-72
2023/04/25 06:36:51;;;;;;;10.85;2.53;;;;;;;7.28;100.00;101191.50;5092847;27;20081;-72
2023/04/25 06:39:17;;;;;;;7.32;2.45;;;;;;;7.46;100.00;101193.31;5095092;27;20532;-72
2023/04/25 06:41:43;;;;;;;7.43;2.80;;;;;;;7.60;100.00;101194.50;5095622;27;20139;-71
2023/04/25 06:44:29;;;;;;;11.10;3.20;;;;;;;7.87;100.00;101200.34;5097553;27;20428;-72
2023/04/25 06:46:55;;;;;;;9.52;3.33;;;;;;;7.73;100.00;101190.34;5058073;27;20614;-72
2023/04/25 06:49:21;;;;;;;9.80;2.83;;;;;;;7.70;100.00;101195.81;5084290;27;20048;-72
2023/04/25 06:51:47;;;;;;;9.90;3.15;;;;;;;7.63;100.00;101207.63;5100152;27;20036;-72
2023/04/25 06:54:13;;;;;;;10.35;2.90;;;;;;;7.72;100.00;101201.91;5075199;27;21054;-72
2023/04/25 06:56:47;;;;;;;12.20;2.85;;;;;;;7.64;100.00;101207.56;5062885;27;20148;-72
2023/04/25 06:59:14;;;;;;;13.32;2.92;;;;;;;7.71;100.00;101216.09;5097136;27;20063;-72
2023/04/25 07:01:41;;;;;;;11.02;2.97;;;;;;;7.54;100.00;101219.53;5076418;27;20046;-72
2023/04/25 07:04:14;;;;;;;9.80;3.17;;;;;;;7.83;100.00;101222.63;5095820;27;20039;-71
2023/04/25 07:06:47;;;;;;;10.02;3.28;;;;;;;7.84;100.00;101227.91;5075350;27;20124;-72
2023/04/25 07:09:16;;;;;;;7.50;2.80;;;;;;;7.68;100.00;101225.09;5077217;27;20147;-72
2023/04/25 07:11:45;;;;;;;10.20;2.95;;;;;;;7.61;100.00;101236.88;5076754;27;20036;-72
2023/04/25 07:14:11;;;;;;;13.73;2.45;;;;;;;7.80;100.00;101236.94;5067145;27;20031;-72
2023/04/25 07:16:36;;;;;;;12.50;2.53;;;;;;;8.20;100.00;101230.63;5096359;27;20048;-72
2023/04/25 07:19:02;;;;;;;10.82;2.20;;;;;;;8.73;100.00;101232.50;5081408;27;20063;-72
2023/04/25 07:21:28;;;;;;;10.07;2.72;;;;;;;9.24;100.00;101240.63;5096538;27;20737;-72
2023/04/25 07:23:55;;;;;;;10.30;2.95;;;;;;;9.40;100.00;101230.03;5077240;27;20143;-72
2023/04/25 07:26:25;;;;;;;11.45;2.92;;;;;;;8.86;100.00;101245.22;5077199;28;20624;-72
2023/04/25 07:29:10;;;;;;;7.40;2.25;;;;;;;9.35;100.00;101246.25;5104265;27;20039;-72
2023/04/25 07:31:35;;;;;;;13.25;2.70;;;;;;;9.70;100.00;101236.41;5090082;27;20039;-72
2023/04/25 07:34:05;;;;;;;11.43;2.97;;;;;;;9.54;99.01;101231.03;5098865;27;20042;-72
2023/04/25 07:36:31;;;;;;;10.00;2.55;;;;;;;9.33;98.43;101235.66;5079122;27;20132;-71
2023/04/25 07:38:56;;;;;;;13.60;2.55;;;;;;;9.35;96.14;101238.25;5077942;28;20042;-71
2023/04/25 07:41:22;;;;;;;11.13;2.67;;;;;;;9.72;96.55;101242.50;5077185;27;20032;-71
2023/04/25 07:43:48;;;;;;;11.10;2.47;;;;;;;10.06;93.25;101238.88;5085611;27;20027;-71
2023/04/25 07:46:14;;;;;;;13.55;3.15;;;;;;;9.74;96.06;101242.41;5102041;27;20162;-71
2023/04/25 07:48:42;;;;;;;10.63;2.75;;;;;;;10.29;96.10;101242.09;5071375;27;20046;-71
2023/04/25 07:51:08;;;;;;;7.03;2.90;;;;;;;10.51;87.32;101247.09;5088266;27;20049;-71
2023/04/25 07:53:37;;;;;;;7.65;2.85;;;;;;;11.00;85.82;101250.47;5076030;28;20039;-71
2023/04/25 07:56:07;;;;;;;11.65;3.35;;;;;;;11.24;83.32;101242.81;5074410;28;20080;-72
2023/04/25 07:58:38;;;;;;;16.00;3.38;;;;;;;11.61;82.12;101248.63;5076106;27;20032;-71
2023/04/25 08:01:06;;;;;;;14.38;3.42;;;;;;;11.84;80.05;101245.38;5072988;27;20036;-71
2023/04/25 08:03:47;;;;;;;15.43;3.47;;;;;;;12.38;79.89;101244.69;5091513;27;20102;-71
2023/04/25 08:06:19;;;;;;;;;;;;;;;11.70;77.28;101249.84;5066380;27;20039;-72
2023/04/25 08:09:05;;;;;;;13.27;3.17;;;;;;;12.20;79.73;101246.72;5076655;27;19958;-72
2023/04/25 08:11:37;;;;;;;11.52;3.05;;;;;;;12.19;76.67;101251.19;5070641;27;20298;-72
2023/04/25 08:14:03;;;;;;;15.52;2.80;;;;;;;11.96;76.90;101248.28;5074537;27;20047;-72
2023/04/25 08:16:29;;;;;;;15.55;2.92;;;;;;;11.59;75.68;101262.03;5067252;28;20032;-72
2023/04/25 08:18:56;;;;;;;14.27;2.60;;;;;;;11.21;77.34;101266.19;5059381;27;20044;-72
2023/04/25 08:21:22;;;;;;;7.22;2.40;;;;;;;11.62;71.80;101267.22;5081191;27;20536;-72
2023/04/25 08:23:48;;;;;;;13.98;3.83;;;;;;;11.91;70.83;101264.59;5074230;28;20112;-71
2023/04/25 08:26:22;;;;;;;11.82;3.90;;;;;;;11.89;74.14;101270.00;5078908;27;20178;-72
2023/04/25 08:28:49;;;;;;;11.15;2.83;;;;;;;11.85;73.77;101270.34;5077040;27;20028;-71
2023/04/25 08:31:15;;;;;;;11.95;2.35;;;;;;;11.68;72.26;101279.31;5075848;27;20745;-71
2023/04/25 08:33:51;;;;;;;6.82;2.60;;;;;;;11.48;69.48;101277.00;5073229;27;20043;-72
2023/04/25 08:36:23;;;;;;;16.65;3.10;;;;;;;11.02;68.17;101287.72;5090967;28;20716;-71
2023/04/25 08:38:49;;;;;;;14.25;2.17;;;;;;;10.55;68.78;101292.19;5074513;27;20051;-71
2023/04/25 08:41:20;;;;;;;8.57;2.55;;;;;;;10.68;73.15;101291.47;5087277;27;20035;-71
2023/04/25 08:43:48;;;;;;;10.48;2.50;;;;;;;10.37;74.69;101302.03;5093660;27;20056;-71
2023/04/25 08:46:17;;;;;;;14.00;2.60;;;;;;;10.13;75.38;101306.00;5079315;27;20036;-71
2023/04/25 08:49:02;;;;;;;15.30;3.50;;;;;;;10.20;84.80;101330.53;5097918;27;20543;-72
2023/04/25 08:51:31;;;;;;;5.70;1.73;;;;;;;9.22;85.50;101344.47;5074977;27;20043;-71
2023/04/25 08:54:12;;;;;;;6.18;1.88;;;;;;;8.12;97.07;101348.78;5100169;27;20038;-71
2023/04/25 08:56:40;;;;;;;9.45;1.90;;;;;;;7.61;100.00;101358.97;5077074;27;20028;-71
2023/04/25 08:59:08;;;;;;;10.50;1.92;;;;;;;7.93;100.00;101360.25;5095716;27;20130;-71
2023/04/25 09:01:36;;;;;;;8.18;2.00;;;;;;;7.85;100.00;101357.06;5071909;27;20040;-71
2023/04/25 09:04:02;;;;;;;11.23;2.17;;;;;;;7.91;100.00;101366.53;5101151;27;20047;-71
2023/04/25 09:06:32;;;;;;;7.97;1.85;;;;;;;7.86;100.00;101366.75;5078080;27;20032;-71
2023/04/25 09:09:06;;;;;;;7.57;2.15;;;;;;;8.16;100.00;101353.91;5087482;27;20028;-71
2023/04/25 09:11:33;;;;;;;6.97;2.08;;;;;;;8.43;100.00;101361.56;5082051;27;20075;-71
2023/04/25 09:14:20;;;;;;;6.30;2.00;;;;;;;8.97;100.00;101354.59;5080497;27;20086;-70
2023/04/25 09:17:05;;;;;;;7.85;2.05;;;;;;;9.27;98.79;101362.88;5079188;27;20032;-71
2023/04/25 09:20:09;;;;;;;7.15;1.77;;;;;;;10.00;91.97;101366.25;5080307;27;20039;-71
2023/04/25 09:22:36;;;;;;;6.75;2.05;;;;;;;9.59;93.81;101370.09;5077251;27;20139;-71
2023/04/25 09:25:14;;;;;;;8.80;2.40;;;;;;;10.71;86.13;101368.66;5077698;27;20040;-71
2023/04/25 09:27:52;;;;;;;12.27;2.10;;;;;;;10.85;79.67;101364.28;5069370;27;20164;-71
2023/04/25 09:30:33;;;;;;;6.38;2.00;;;;;;;10.59;79.81;101363.06;5077070;28;20130;-71
2023/04/25 09:33:08;;;;;;;7.68;2.47;;;;;;;11.11;78.20;101357.47;5081979;27;20138;-71
2023/04/25 09:35:45;;;;;;;8.70;2.03;;;;;;;10.96;80.12;101373.50;5079917;28;20038;-71
2023/04/25 09:38:22;;;;;;;7.45;1.88;;;;;;;11.22;76.47;101364.00;5075318;28;20768;-71
2023/04/25 09:41:00;;;;;;;21.00;2.25;;;;;;;11.30;76.53;101361.75;5075532;27;20039;-71
2023/04/25 09:43:46;;;;;;;8.38;1.85;;;;;;;11.50;77.10;101365.94;5075657;27;20044;-71
2023/04/25 09:46:12;;;;;;;8.80;2.03;;;;;;;12.02;71.99;101362.81;5080961;27;20051;-71
2023/04/25 09:48:50;;;;;;;9.75;2.25;;;;;;;12.61;68.90;101356.44;5102291;27;21180;-71
2023/04/25 09:51:18;;;;;;;8.18;1.98;;;;;;;13.10;65.30;101355.03;5078465;27;20147;-71
2023/04/25 09:53:49;;;;;;;11.48;1.90;;;;;;;13.15;62.62;101355.59;5078624;27;20036;-71
2023/04/25 09:56:47;;;;;;;12.50;2.40;;;;;;;12.88;66.81;101353.78;5077159;27;20036;-71
2023/04/25 09:59:14;;;;;;;10.13;2.17;;;;;;;12.72;63.90;101363.75;5092723;27;20032;-71
2023/04/25 10:01:41;;;;;;;8.82;2.38;;;;;;;12.34;61.21;101363.50;5075267;27;20046;-71
2023/04/25 10:04:12;;;;;;;7.13;1.80;;;;;;;12.69;63.18;101363.94;5075600;28;20040;-71
2023/04/25 10:06:53;;;;;;;11.20;2.25;;;;;;;12.31;61.16;101374.41;5067057;27;20542;-72
2023/04/25 10:09:26;;;;;;;7.03;1.92;;;;;;;12.13;61.36;101377.25;5068327;27;20113;-71
2023/04/25 10:11:51;;;;;;;;;;;;;;;11.76;62.13;101380.41;5104746;27;20664;-71
2023/04/25 10:14:18;;;;;;;11.80;2.17;;;;;;;11.42;62.87;101377.03;5094499;27;19979;-71
2023/04/25 10:16:45;;;;;;;7.95;1.90;;;;;;;11.93;63.45;101386.47;5095938;27;20036;-71
2023/04/25 10:19:11;;;;;;;8.30;1.88;;;;;;;12.40;62.91;101374.69;5098395;27;20035;-71
2023/04/25 10:21:51;;;;;;;9.30;2.45;;;;;;;12.88;63.26;101368.97;5099357;27;20744;-71
2023/04/25 10:24:20;;;;;;;9.57;2.13;;;;;;;13.04;57.96;101369.69;5093254;27;20036;-71
2023/04/25 10:26:47;;;;;;;7.78;2.53;;;;;;;12.89;56.38;101368.03;5102232;27;20031;-71
2023/04/25 10:29:12;;;;;;;4.00;1.63;;;;;;;12.98;56.56;101356.72;5104041;27;20445;-71
2023/04/25 10:31:47;;;;;;;4.28;1.25;;;;;;;13.04;54.77;101363.50;5081564;27;20038;-71
2023/04/25 10:34:12;;;;;;;8.77;1.63;;;;;;;13.36;53.92;101366.78;5069470;27;20139;-71
2023/04/25 10:36:38;;;;;;;5.45;1.70;;;;;;;13.12;53.37;101374.56;5097133;27;20028;-71
2023/04/25 10:39:08;;;;;;;9.07;2.35;;;;;;;12.84;53.70;101375.50;5101195;27;20044;-71
2023/04/25 10:41:50;;;;;;;5.22;1.60;;;;;;;13.17;59.18;101383.16;5097214;27;21034;-71
2023/04/25 10:44:19;;;;;;;3.63;1.38;;;;;;;13.48;50.97;101374.84;5089350;27;20066;-71
2023/04/25 10:46:45;;;;;;;9.20;2.10;;;;;;;12.54;54.07;101378.28;5061824;27;20055;-71
2023/04/25 10:49:29;;;;;;;13.20;2.67;;;;;;;12.03;56.98;101389.44;5095846;27;20036;-71
2023/04/25 10:52:15;;;;;;;10.82;2.20;;;;;;;11.30;58.08;101399.13;5099085;27;20110;-71
2023/04/25 10:55:04;;;;;;;8.38;2.05;;;;;;;10.82;61.47;101406.25;5100001;27;20031;-71
2023/04/25 10:57:41;;;;;;;14.35;2.22;;;;;;;10.33;68.96;101428.44;5081399;27;20039;-71
2023/04/25 11:00:10;;;;;;;9.45;2.05;;;;;;;10.34;71.57;101431.97;5067345;27;21015;-72
2023/04/25 11:02:53;;;;;;;8.30;1.70;;;;;;;10.46;72.72;101441.13;5100760;27;20044;-70
2023/04/25 11:05:23;;;;;;;7.68;1.45;;;;;;;10.11;72.92;101443.81;5099932;27;20142;-71
2023/04/25 11:07:57;;;;;;;8.02;1.75;;;;;;;10.28;73.86;101443.81;5100226;27;20121;-71
2023/04/25 11:10:27;;;;;;;6.97;1.60;;;;;;;9.95;71.84;101438.41;5095218;27;20054;-71
2023/04/25 11:12:53;;;;;;;5.65;1.65;;;;;;;9.90;72.05;101442.25;5076133;28;20540;-71
2023/04/25 11:15:19;;;;;;;6.80;1.77;;;;;;;9.99;71.59;101437.31;5101177;27;20219;-71
2023/04/25 11:17:46;;;;;;;6.78;1.63;;;;;;;10.24;72.04;101446.72;5101095;27;20067;-72
2023/04/25 11:20:13;;;;;;;11.85;2.15;;;;;;;10.11;70.90;101449.16;5098810;27;20028;-71
2023/04/25 11:22:42;;;;;;;8.57;2.05;;;;;;;10.21;69.61;101441.53;5102706;27;20032;-71
2023/04/25 11:25:10;;;;;;;4.85;1.70;;;;;;;10.58;65.79;101435.13;5095833;27;20036;-71
2023/04/25 11:27:50;;;;;;;3.90;1.67;;;;;;;10.70;64.63;101437.16;5076912;28;20032;-71
2023/04/25 11:30:16;;;;;;;7.25;2.00;;;;;;;11.00;64.42;101437.28;5064104;28;20139;-71
2023/04/25 11:32:42;;;;;;;10.82;1.98;;;;;;;11.13;62.39;101432.94;5083969;27;20036;-71
2023/04/25 11:35:09;;;;;;;6.10;1.55;;;;;;;11.39;59.67;101434.13;5089853;27;20123;-71